KEDJ

Bellefontaine Regional Airport

Bellefontaine, Ohio, USA
METAR KEDJ 241215Z AUTO 08005KT 4SM BKN008 BKN017 OVC039 05/05 A3016 RMK AO1
Observed Flight Rules
Feb-24 @ 12:15 UTC (9 minutes ago) Instrument Flight Rules
Wind Visibility Clouds
80° at 5 knots 4 miles
  • Broken at 800' AGL
  • Broken at 1,700' AGL
  • Overcast at 3,900' AGL
Temperatures Readings
Current 5°C / 41°F
Dewpoint 5°C / 41°F
Humidity 100%
Altimeter 30.16" Hg
Pressure 1021 hPa
Elevation 342
METAR KEDJ 241215Z AUTO 08005KT 4SM BKN008 BKN017 OVC039 05/05 A3016 RMK AO1
Observed Flight Rules
Feb-24 @ 12:15 UTC
(9 minutes ago)
IFR
Wind Visibility
80° at 5 knots 4 miles
Clouds
  • Broken at 800' AGL
  • Broken at 1,700' AGL
  • Overcast at 3,900' AGL
Temperature Dewpoint
5°C / 41°F 5°C / 41°F
Humidity Altimeter Pressure
100% 30.16" Hg 1021 hPa